createdAt,value
2019-04-07T00:00:44.502Z,17.57
2019-04-07T00:01:51.440Z,17.68
2019-04-07T00:02:57.090Z,17.50
2019-04-07T00:04:02.581Z,17.44
2019-04-07T00:05:13.040Z,17.23
2019-04-07T00:06:14.475Z,17.07
2019-04-07T00:07:20.090Z,17.31
2019-04-07T00:08:25.297Z,17.36
2019-04-07T00:09:30.362Z,17.52
2019-04-07T00:10:35.987Z,17.44
2019-04-07T00:11:40.924Z,17.59
2019-04-07T00:12:45.523Z,17.56
2019-04-07T00:13:51.787Z,17.48
2019-04-07T00:14:56.448Z,17.38
2019-04-07T00:16:01.274Z,17.50
2019-04-07T00:17:06.814Z,17.60
2019-04-07T00:18:11.763Z,17.64
2019-04-07T00:19:17.241Z,17.66
2019-04-07T00:20:22.045Z,17.70
2019-04-07T00:21:27.297Z,17.60
2019-04-07T00:22:32.386Z,17.62
2019-04-07T00:23:37.586Z,17.67
2019-04-07T00:24:42.484Z,17.70
2019-04-07T00:25:47.147Z,17.60
2019-04-07T00:26:52.516Z,17.79
2019-04-07T00:27:57.531Z,17.65
2019-04-07T00:29:02.435Z,17.64
2019-04-07T00:30:08.904Z,17.73
2019-04-07T00:31:13.501Z,17.65
2019-04-07T00:32:18.664Z,17.73
2019-04-07T00:33:24.118Z,17.68
2019-04-07T00:34:28.933Z,17.62
2019-04-07T00:35:33.674Z,17.67
2019-04-07T00:36:38.661Z,17.50
2019-04-07T00:37:43.993Z,17.59
2019-04-07T00:38:48.943Z,17.68
2019-04-07T00:39:54.142Z,17.56
2019-04-07T00:40:59.251Z,17.71
2019-04-07T00:42:04.182Z,17.60
2019-04-07T00:43:09.980Z,17.73
2019-04-07T00:44:14.891Z,17.63
2019-04-07T00:45:20.636Z,17.69
2019-04-07T00:46:25.878Z,17.69
2019-04-07T00:47:31.192Z,17.34
2019-04-07T00:48:36.434Z,17.28
2019-04-07T00:49:42.191Z,17.54
2019-04-07T00:50:48.130Z,17.58
2019-04-07T00:51:54.307Z,17.69
2019-04-07T00:53:00.198Z,17.71
2019-04-07T00:54:05.073Z,17.74
2019-04-07T00:55:09.958Z,17.25
2019-04-07T00:56:15.780Z,17.75
2019-04-07T00:57:21.088Z,17.37
2019-04-07T00:58:26.888Z,17.31
2019-04-07T00:59:32.004Z,17.54
2019-04-07T01:00:38.080Z,17.61
2019-04-07T01:01:42.775Z,17.76
2019-04-07T01:02:47.503Z,17.90
2019-04-07T01:03:55.667Z,17.97
2019-04-07T01:05:00.342Z,18.03
2019-04-07T01:06:04.983Z,18.03
2019-04-07T01:07:10.292Z,18.06
2019-04-07T01:08:15.550Z,17.98
2019-04-07T01:09:20.416Z,17.90
2019-04-07T01:10:26.100Z,18.06
2019-04-07T01:11:30.590Z,18.01
2019-04-07T01:12:35.904Z,18.08
2019-04-07T01:13:40.830Z,17.90
2019-04-07T01:14:46.678Z,17.83
2019-04-07T01:15:51.426Z,18.03
2019-04-07T01:16:56.400Z,17.95
2019-04-07T01:18:02.124Z,17.95
2019-04-07T01:19:07.726Z,17.70
2019-04-07T01:20:12.701Z,17.69
2019-04-07T01:21:17.742Z,17.64
2019-04-07T01:22:23.246Z,17.56
2019-04-07T01:23:28.258Z,17.57
2019-04-07T01:24:34.073Z,17.57
2019-04-07T01:25:39.531Z,17.77
2019-04-07T01:26:44.725Z,17.60
2019-04-07T01:27:50.042Z,17.73
2019-04-07T01:28:55.441Z,17.69
2019-04-07T01:30:00.813Z,17.81
2019-04-07T01:31:07.125Z,17.79
2019-04-07T01:32:11.584Z,17.82
2019-04-07T01:33:16.526Z,17.95
2019-04-07T01:34:21.489Z,17.82
2019-04-07T01:35:26.781Z,17.87
2019-04-07T01:36:32.513Z,17.72
2019-04-07T01:37:37.861Z,17.83
2019-04-07T01:38:43.290Z,17.62
2019-04-07T01:39:48.326Z,17.65
2019-04-07T01:41:03.134Z,17.59
2019-04-07T01:42:30.167Z,17.78
2019-04-07T01:43:49.449Z,17.96
2019-04-07T01:45:12.735Z,18.20
2019-04-07T01:46:42.763Z,18.29
2019-04-07T01:47:57.019Z,18.35
2019-04-07T01:49:11.619Z,18.19
2019-04-07T01:50:25.513Z,18.15
2019-04-07T01:51:50.386Z,17.80
2019-04-07T01:53:20.351Z,17.93
2019-04-07T01:54:53.787Z,17.83
2019-04-07T01:56:08.158Z,18.06
2019-04-07T01:57:32.317Z,17.74
2019-04-07T01:59:12.175Z,17.64
2019-04-07T02:00:34.626Z,17.61
2019-04-07T02:01:57.119Z,17.74
2019-04-07T02:03:07.512Z,17.89
2019-04-07T02:04:23.692Z,17.78
2019-04-07T02:05:59.224Z,17.60
2019-04-07T02:07:22.661Z,17.66
2019-04-07T02:08:45.448Z,17.71
2019-04-07T02:10:15.204Z,17.73
2019-04-07T02:11:41.877Z,17.50
2019-04-07T02:13:04.350Z,17.41
2019-04-07T02:14:28.248Z,17.46
2019-04-07T02:15:52.682Z,17.36
2019-04-07T02:17:09.864Z,17.29
2019-04-07T02:18:23.457Z,17.43
2019-04-07T02:19:35.954Z,17.54
2019-04-07T02:21:13.037Z,17.57
2019-04-07T02:22:39.684Z,17.49
2019-04-07T02:23:57.597Z,17.51
2019-04-07T02:25:11.965Z,17.41
2019-04-07T02:26:23.628Z,17.17
2019-04-07T02:27:34.817Z,17.31
2019-04-07T02:29:10.483Z,17.40
2019-04-07T02:30:33.238Z,17.29
2019-04-07T02:32:09.750Z,17.25
2019-04-07T02:33:39.536Z,17.21
2019-04-07T02:34:50.949Z,16.89
2019-04-07T02:36:17.886Z,16.67
2019-04-07T02:37:36.984Z,16.67
2019-04-07T02:39:03.539Z,16.39
2019-04-07T02:40:26.708Z,16.43
2019-04-07T02:42:05.996Z,16.49
2019-04-07T02:43:24.166Z,16.69
2019-04-07T02:44:42.690Z,16.67
2019-04-07T02:46:05.857Z,16.53
2019-04-07T02:47:15.973Z,16.65
2019-04-07T02:48:46.733Z,16.85
2019-04-07T02:50:17.669Z,16.69
2019-04-07T02:51:34.366Z,16.55
2019-04-07T02:52:54.831Z,16.58
2019-04-07T02:54:17.621Z,16.56
2019-04-07T02:55:30.040Z,16.69
2019-04-07T02:57:09.896Z,16.52
2019-04-07T02:58:36.430Z,16.55
2019-04-07T02:59:48.558Z,16.71
2019-04-07T03:01:18.498Z,17.05
2019-04-07T03:02:31.928Z,16.85
2019-04-07T03:03:50.234Z,16.88
2019-04-07T03:05:06.442Z,16.77
2019-04-07T03:06:50.009Z,16.82
2019-04-07T03:08:01.597Z,16.33
2019-04-07T03:09:22.077Z,16.32
2019-04-07T03:10:48.739Z,16.48
2019-04-07T03:12:05.460Z,16.51
2019-04-07T03:13:27.133Z,16.68
2019-04-07T03:14:54.369Z,16.61
2019-04-07T03:16:11.914Z,16.85
2019-04-07T03:17:30.085Z,16.94
2019-04-07T03:18:40.818Z,16.91
2019-04-07T03:19:54.105Z,16.89
2019-04-07T03:21:19.448Z,16.88
2019-04-07T03:22:42.430Z,16.88
2019-04-07T03:24:06.381Z,16.80
2019-04-07T03:25:22.119Z,16.95
2019-04-07T03:26:49.087Z,17.05
2019-04-07T03:28:18.124Z,16.95
2019-04-07T03:29:49.323Z,17.05
2019-04-07T03:31:12.839Z,16.97
2019-04-07T03:32:40.026Z,16.83
2019-04-07T03:34:04.133Z,16.70
2019-04-07T03:35:20.951Z,16.96
2019-04-07T03:36:41.125Z,16.77
2019-04-07T03:38:00.930Z,16.67
2019-04-07T03:39:26.624Z,16.83
2019-04-07T03:40:44.107Z,16.65
2019-04-07T03:41:55.552Z,16.47
2019-04-07T03:43:09.389Z,16.39
2019-04-07T03:44:23.162Z,16.67
2019-04-07T03:46:02.469Z,16.58
2019-04-07T03:47:14.263Z,16.39
2019-04-07T03:48:41.598Z,16.52
2019-04-07T03:49:52.978Z,16.30
2019-04-07T03:51:06.787Z,16.37
2019-04-07T03:52:22.409Z,16.48
2019-04-07T03:53:46.180Z,16.67
2019-04-07T03:55:15.642Z,16.56
2019-04-07T03:56:39.889Z,16.42
2019-04-07T03:58:09.941Z,16.38
2019-04-07T03:59:33.398Z,16.30
2019-04-07T04:01:35.585Z,16.54
2019-04-07T04:03:02.613Z,16.43
2019-04-07T04:04:26.356Z,16.43
2019-04-07T04:05:53.865Z,16.31
2019-04-07T04:07:18.027Z,16.38
2019-04-07T04:08:26.935Z,16.53
2019-04-07T04:09:45.585Z,16.38
2019-04-07T04:11:09.570Z,16.27
2019-04-07T04:12:39.681Z,16.27
2019-04-07T04:14:04.584Z,16.39
2019-04-07T04:15:15.007Z,16.25
2019-04-07T04:16:25.727Z,16.02
2019-04-07T04:17:30.688Z,16.05
2019-04-07T04:18:35.528Z,16.14
2019-04-07T04:19:40.981Z,16.37
2019-04-07T04:20:46.409Z,16.34
2019-04-07T04:21:52.432Z,16.42
2019-04-07T04:22:58.263Z,16.22
2019-04-07T04:24:04.151Z,16.19
2019-04-07T04:25:10.718Z,16.21
2019-04-07T04:26:16.064Z,16.20
2019-04-07T04:27:21.526Z,16.16
2019-04-07T04:28:27.341Z,15.75
2019-04-07T04:29:33.224Z,15.83
2019-04-07T04:30:37.980Z,16.01
2019-04-07T04:31:43.414Z,16.05
2019-04-07T04:32:48.427Z,16.18
2019-04-07T04:33:54.460Z,16.05
2019-04-07T04:34:59.486Z,16.07
2019-04-07T04:36:04.550Z,16.12
2019-04-07T04:37:09.509Z,15.84
2019-04-07T04:38:14.437Z,15.92
2019-04-07T04:39:20.948Z,15.96
2019-04-07T04:40:26.338Z,15.98
2019-04-07T04:41:31.294Z,15.86
2019-04-07T04:42:35.971Z,15.95
2019-04-07T04:43:41.100Z,15.79
2019-04-07T04:44:46.359Z,15.83
2019-04-07T04:45:53.221Z,15.78
2019-04-07T04:46:58.606Z,15.50
2019-04-07T04:48:04.458Z,15.40
2019-04-07T04:49:09.269Z,15.53
2019-04-07T04:50:14.819Z,15.55
2019-04-07T04:51:19.963Z,15.39
2019-04-07T04:52:25.155Z,15.33
2019-04-07T04:53:30.850Z,15.44
2019-04-07T04:54:36.155Z,15.46
2019-04-07T04:55:40.964Z,15.50
2019-04-07T04:56:46.863Z,15.55
2019-04-07T04:57:51.580Z,15.48
2019-04-07T04:58:56.616Z,15.60
2019-04-07T05:00:01.897Z,15.50
2019-04-07T05:01:07.792Z,15.30
2019-04-07T05:02:12.250Z,15.11
2019-04-07T05:03:18.026Z,15.21
2019-04-07T05:04:24.068Z,15.22
2019-04-07T05:05:29.214Z,14.81
2019-04-07T05:06:34.723Z,14.93
2019-04-07T05:07:50.241Z,14.97
2019-04-07T05:08:46.857Z,15.19
2019-04-07T05:09:54.542Z,14.92
2019-04-07T05:10:58.843Z,15.31
2019-04-07T05:12:05.604Z,15.18
2019-04-07T05:13:10.559Z,15.17
2019-04-07T05:14:15.414Z,15.39
2019-04-07T05:15:21.019Z,15.55
2019-04-07T05:16:28.893Z,15.43
2019-04-07T05:17:33.781Z,15.58
2019-04-07T05:18:38.947Z,15.41
2019-04-07T05:19:44.352Z,15.48
2019-04-07T05:20:49.942Z,15.42
2019-04-07T05:21:54.932Z,15.49
2019-04-07T05:23:00.976Z,15.20
2019-04-07T05:24:06.819Z,15.50
2019-04-07T05:25:12.375Z,15.43
2019-04-07T05:26:17.918Z,15.44
2019-04-07T05:27:22.885Z,15.64
2019-04-07T05:28:28.666Z,15.65
2019-04-07T05:29:34.187Z,15.33
2019-04-07T05:30:39.235Z,15.64
2019-04-07T05:31:44.770Z,15.58
2019-04-07T05:32:49.962Z,15.48
2019-04-07T05:33:55.366Z,15.78
2019-04-07T05:35:01.052Z,15.63
2019-04-07T05:36:05.974Z,15.53
2019-04-07T05:37:11.499Z,15.36
2019-04-07T05:38:16.606Z,15.67
2019-04-07T05:39:21.753Z,15.52
2019-04-07T05:40:26.691Z,15.58
2019-04-07T05:41:31.343Z,15.78
2019-04-07T05:42:36.300Z,15.82
2019-04-07T05:43:41.531Z,15.78
2019-04-07T05:44:46.317Z,15.83
2019-04-07T05:45:51.524Z,15.79
2019-04-07T05:46:57.003Z,15.86
2019-04-07T05:48:02.135Z,15.90
2019-04-07T05:49:07.596Z,15.98
2019-04-07T05:50:12.318Z,16.08
2019-04-07T05:51:17.689Z,15.98
2019-04-07T05:52:22.793Z,16.09
2019-04-07T05:53:27.816Z,16.14
2019-04-07T05:54:32.853Z,16.34
2019-04-07T05:55:38.155Z,16.28
2019-04-07T05:56:43.715Z,16.18
2019-04-07T05:57:49.656Z,16.27
2019-04-07T05:58:54.935Z,16.58
2019-04-07T06:00:00.405Z,16.60
2019-04-07T06:01:05.368Z,16.49
2019-04-07T06:02:10.943Z,16.47
2019-04-07T06:03:16.505Z,16.90
2019-04-07T06:04:22.022Z,16.75
2019-04-07T06:05:27.118Z,17.12
2019-04-07T06:06:33.012Z,17.07
2019-04-07T06:07:38.260Z,17.12
2019-04-07T06:08:43.122Z,17.32
2019-04-07T06:09:51.267Z,17.42
2019-04-07T06:10:59.992Z,17.46
2019-04-07T06:12:05.998Z,17.53
2019-04-07T06:13:11.102Z,17.51
2019-04-07T06:14:16.488Z,17.74
2019-04-07T06:15:23.187Z,17.41
2019-04-07T06:16:28.820Z,18.03
2019-04-07T06:17:33.643Z,17.97
2019-04-07T06:18:38.832Z,18.05
2019-04-07T06:19:44.437Z,17.88
2019-04-07T06:20:50.372Z,18.23
2019-04-07T06:21:55.593Z,18.15
2019-04-07T06:23:00.378Z,18.07
2019-04-07T06:24:05.133Z,17.88
2019-04-07T06:25:11.021Z,18.23
2019-04-07T06:26:17.285Z,18.43
2019-04-07T06:27:22.789Z,18.36
2019-04-07T06:28:29.642Z,18.42
2019-04-07T06:29:34.540Z,18.55
2019-04-07T06:30:39.564Z,18.74
2019-04-07T06:31:44.759Z,18.75
2019-04-07T06:32:49.622Z,18.67
2019-04-07T06:33:55.189Z,19.02
2019-04-07T06:35:00.584Z,19.22
2019-04-07T06:36:05.662Z,19.35
2019-04-07T06:37:10.762Z,19.35
2019-04-07T06:38:16.409Z,19.41
2019-04-07T06:39:21.524Z,19.46
2019-04-07T06:40:27.310Z,19.61
2019-04-07T06:41:33.369Z,20.05
2019-04-07T06:42:40.437Z,20.04
2019-04-07T06:43:45.386Z,20.07
2019-04-07T06:44:52.210Z,20.13
2019-04-07T06:46:19.632Z,20.22
2019-04-07T06:47:30.812Z,20.30
2019-04-07T06:48:42.557Z,20.26
2019-04-07T06:50:18.983Z,20.01
2019-04-07T06:51:35.658Z,20.18
2019-04-07T06:53:17.461Z,20.34
2019-04-07T06:54:37.710Z,20.23
2019-04-07T06:56:20.738Z,20.35
2019-04-07T06:57:50.738Z,20.64
2019-04-07T06:59:14.992Z,20.73
2019-04-07T07:00:53.610Z,20.57
2019-04-07T07:02:14.128Z,20.86
2019-04-07T07:03:39.032Z,20.79
2019-04-07T07:05:13.604Z,21.19
2019-04-07T07:06:29.474Z,21.33
2019-04-07T07:07:54.033Z,21.59
2019-04-07T07:09:26.461Z,21.67
2019-04-07T07:10:38.863Z,21.77
2019-04-07T07:12:06.287Z,21.92
2019-04-07T07:13:29.864Z,21.98
2019-04-07T07:14:47.830Z,22.28
2019-04-07T07:16:17.479Z,22.91
2019-04-07T07:17:31.113Z,24.30
2019-04-07T07:18:58.750Z,25.70
2019-04-07T07:20:27.568Z,26.69
2019-04-07T07:21:55.637Z,26.34
2019-04-07T07:23:13.348Z,25.11
2019-04-07T07:24:22.581Z,25.05
2019-04-07T07:25:23.445Z,26.64
2019-04-07T07:26:32.949Z,28.11
2019-04-07T07:27:38.914Z,29.44
2019-04-07T07:28:43.874Z,29.92
2019-04-07T07:29:51.883Z,30.96
2019-04-07T07:30:56.500Z,31.07
2019-04-07T07:32:03.773Z,31.74
2019-04-07T07:33:10.856Z,31.53
2019-04-07T07:34:15.575Z,31.88
2019-04-07T07:35:22.277Z,32.43
2019-04-07T07:36:28.449Z,32.58
2019-04-07T07:37:33.407Z,33.08
2019-04-07T07:38:38.582Z,33.15
2019-04-07T07:39:45.119Z,33.35
2019-04-07T07:40:52.652Z,33.94
2019-04-07T07:41:58.342Z,34.15
2019-04-07T07:43:03.520Z,34.10
2019-04-07T07:44:09.597Z,34.06
2019-04-07T07:45:15.535Z,34.53
2019-04-07T07:46:22.841Z,34.49
2019-04-07T07:47:27.708Z,34.31
2019-04-07T07:48:32.401Z,34.81
2019-04-07T07:49:40.350Z,34.97
2019-04-07T07:50:44.618Z,33.80
2019-04-07T07:51:50.568Z,32.23
2019-04-07T07:52:56.163Z,31.21
2019-04-07T07:54:02.090Z,30.38
2019-04-07T07:55:07.235Z,29.65
2019-04-07T07:56:21.471Z,29.56
2019-04-07T07:57:27.274Z,29.54
2019-04-07T07:58:33.645Z,30.26
2019-04-07T07:59:40.228Z,31.89
2019-04-07T08:00:46.080Z,33.18
2019-04-07T08:01:51.679Z,34.91
2019-04-07T08:02:57.295Z,35.98
2019-04-07T08:04:03.482Z,36.55
2019-04-07T08:05:09.253Z,37.72
2019-04-07T08:06:15.027Z,37.47
2019-04-07T08:07:20.328Z,38.00
2019-04-07T08:08:25.689Z,38.41
2019-04-07T08:09:31.786Z,39.03
2019-04-07T08:10:37.581Z,38.82
2019-04-07T08:11:43.524Z,39.78
2019-04-07T08:12:49.600Z,39.18
2019-04-07T08:13:55.364Z,38.95
2019-04-07T08:15:00.718Z,39.14
2019-04-07T08:16:06.337Z,38.89
2019-04-07T08:17:12.294Z,40.44
2019-04-07T08:18:19.606Z,41.12
2019-04-07T08:19:27.864Z,41.63
2019-04-07T08:20:30.632Z,38.79
2019-04-07T08:21:35.770Z,39.72
2019-04-07T08:22:43.632Z,40.41
2019-04-07T08:23:48.178Z,40.79
2019-04-07T08:24:53.549Z,41.18
2019-04-07T08:25:59.108Z,40.50
2019-04-07T08:27:04.080Z,40.93
2019-04-07T08:28:09.304Z,39.39
2019-04-07T08:29:14.933Z,39.81
2019-04-07T08:30:19.906Z,41.09
2019-04-07T08:31:25.110Z,40.81
2019-04-07T08:32:32.277Z,41.24
2019-04-07T08:33:37.458Z,41.60
2019-04-07T08:34:42.657Z,41.09
2019-04-07T08:35:48.030Z,41.05
2019-04-07T08:36:53.257Z,41.05
2019-04-07T08:37:58.501Z,42.53
2019-04-07T08:39:20.852Z,41.71
2019-04-07T08:40:21.718Z,41.32
2019-04-07T08:41:27.830Z,42.46
2019-04-07T08:42:35.796Z,42.73
2019-04-07T08:43:42.937Z,42.92
2019-04-07T08:44:49.754Z,42.57
2019-04-07T08:45:56.919Z,42.57
2019-04-07T08:47:02.584Z,41.55
2019-04-07T08:48:08.967Z,42.38
2019-04-07T08:49:16.938Z,41.77
2019-04-07T08:50:22.780Z,41.48
2019-04-07T08:51:30.774Z,39.59
2019-04-07T08:52:38.533Z,38.03
2019-04-07T08:53:44.056Z,37.81
2019-04-07T08:54:51.346Z,35.80
2019-04-07T08:55:55.448Z,35.60
2019-04-07T08:57:00.238Z,34.63
2019-04-07T08:58:06.590Z,34.64
2019-04-07T08:59:15.855Z,34.77
2019-04-07T09:00:22.148Z,33.52
2019-04-07T09:01:29.612Z,34.00
2019-04-07T09:02:33.524Z,33.29
2019-04-07T09:03:38.832Z,34.06
2019-04-07T09:04:47.330Z,34.64
2019-04-07T09:05:50.324Z,35.21
2019-04-07T09:06:59.453Z,35.52
2019-04-07T09:08:05.547Z,36.96
2019-04-07T09:09:09.069Z,38.43
2019-04-07T09:10:19.911Z,39.98
2019-04-07T09:11:25.306Z,41.02
2019-04-07T09:12:31.360Z,41.71
2019-04-07T09:13:38.387Z,42.03
2019-04-07T09:14:43.993Z,41.80
2019-04-07T09:16:08.217Z,43.08
2019-04-07T09:17:31.570Z,42.41
2019-04-07T09:18:32.109Z,39.12
2019-04-07T09:19:54.801Z,39.82
2019-04-07T09:21:20.383Z,38.95
2019-04-07T09:22:53.810Z,41.07
2019-04-07T09:24:15.211Z,41.71
2019-04-07T09:25:40.709Z,43.60
2019-04-07T09:26:53.287Z,42.44
2019-04-07T09:28:17.896Z,42.92
2019-04-07T09:29:46.055Z,41.86
2019-04-07T09:31:22.237Z,42.60
2019-04-07T09:32:40.676Z,43.21
2019-04-07T09:34:04.465Z,46.24
2019-04-07T09:35:25.709Z,46.31
2019-04-07T09:36:40.743Z,43.86
2019-04-07T09:37:56.777Z,44.65
2019-04-07T09:39:39.480Z,44.63
2019-04-07T09:41:07.246Z,46.40
2019-04-07T09:42:27.964Z,45.36
2019-04-07T09:43:42.744Z,45.28
2019-04-07T09:45:09.564Z,44.15
2019-04-07T09:46:21.950Z,44.71
2019-04-07T09:47:46.845Z,45.95
2019-04-07T09:49:13.848Z,45.86
2019-04-07T09:50:37.541Z,41.56
2019-04-07T09:52:10.198Z,43.19
2019-04-07T09:53:34.980Z,46.46
2019-04-07T09:54:54.620Z,43.54
2019-04-07T09:56:17.292Z,44.90
2019-04-07T09:57:31.426Z,42.86
2019-04-07T09:59:01.457Z,43.48
2019-04-07T10:00:21.668Z,44.02
2019-04-07T10:01:39.996Z,42.76
2019-04-07T10:03:05.956Z,40.19
2019-04-07T10:04:18.270Z,39.01
2019-04-07T10:05:47.926Z,34.96
2019-04-07T10:07:18.357Z,35.87
2019-04-07T10:08:34.188Z,35.65
2019-04-07T10:10:04.551Z,34.57
2019-04-07T10:11:24.001Z,34.71
2019-04-07T10:12:36.468Z,34.30
2019-04-07T10:13:58.817Z,33.64
2019-04-07T10:15:19.935Z,32.70
2019-04-07T10:16:37.923Z,33.09
2019-04-07T10:17:52.017Z,32.82
2019-04-07T10:19:31.679Z,32.62
2019-04-07T10:20:52.737Z,31.12
2019-04-07T10:22:09.530Z,31.58
2019-04-07T10:23:42.977Z,32.08
2019-04-07T10:25:18.329Z,31.81
2019-04-07T10:26:40.734Z,30.98
2019-04-07T10:28:00.536Z,31.22
2019-04-07T10:29:27.588Z,30.12
2019-04-07T10:30:55.006Z,30.66
2019-04-07T10:32:18.947Z,30.87
2019-04-07T10:33:44.918Z,31.09
2019-04-07T10:35:12.467Z,30.60
2019-04-07T10:36:34.873Z,28.94
2019-04-07T10:38:00.720Z,28.08
2019-04-07T10:39:25.302Z,28.60
2019-04-07T10:40:55.567Z,28.40
2019-04-07T10:42:29.308Z,28.68
2019-04-07T10:43:45.164Z,28.30
2019-04-07T10:45:09.009Z,28.88
2019-04-07T10:46:36.240Z,28.16
2019-04-07T10:47:58.723Z,28.46
2019-04-07T10:49:10.405Z,29.01
2019-04-07T10:50:25.681Z,29.11
2019-04-07T10:51:52.465Z,28.67
2019-04-07T10:53:19.614Z,27.69
2019-04-07T10:54:45.155Z,28.68
2019-04-07T10:56:09.859Z,28.32
2019-04-07T10:57:36.715Z,28.65
2019-04-07T10:59:06.619Z,28.36
2019-04-07T11:00:34.139Z,28.42
2019-04-07T11:01:50.211Z,28.87
2019-04-07T11:03:14.140Z,28.89
2019-04-07T11:04:32.584Z,28.95
2019-04-07T11:05:46.981Z,30.05
2019-04-07T11:07:14.229Z,29.20
2019-04-07T11:08:40.027Z,29.47
2019-04-07T11:10:06.920Z,27.30
2019-04-07T11:11:30.319Z,27.93
2019-04-07T11:12:58.173Z,28.18
2019-04-07T11:14:13.479Z,27.68
2019-04-07T11:15:55.515Z,28.61
2019-04-07T11:17:10.127Z,27.59
2019-04-07T11:18:20.765Z,28.41
2019-04-07T11:19:47.816Z,28.72
2019-04-07T11:21:30.294Z,28.73
2019-04-07T11:22:53.173Z,28.21
2019-04-07T11:24:35.810Z,28.76
2019-04-07T11:26:06.948Z,29.12
2019-04-07T11:27:36.551Z,28.45
2019-04-07T11:28:57.199Z,29.93
2019-04-07T11:30:09.759Z,29.86
2019-04-07T11:31:19.676Z,29.49
2019-04-07T11:32:46.594Z,28.91
2019-04-07T11:33:59.012Z,28.46
2019-04-07T11:35:11.348Z,30.15
2019-04-07T11:36:27.104Z,29.87
2019-04-07T11:37:41.872Z,28.83
2019-04-07T11:38:51.721Z,29.45
2019-04-07T11:40:43.304Z,30.03
2019-04-07T11:41:54.762Z,30.23
2019-04-07T11:43:21.429Z,30.31
2019-04-07T11:44:35.710Z,31.97
2019-04-07T11:46:08.917Z,35.10
2019-04-07T11:47:28.630Z,36.41
2019-04-07T11:48:39.460Z,38.92
2019-04-07T11:49:51.340Z,41.00
2019-04-07T11:51:24.283Z,40.78
2019-04-07T11:52:35.269Z,42.01
2019-04-07T11:53:47.851Z,42.98
2019-04-07T11:55:05.312Z,42.01
2019-04-07T11:56:21.920Z,43.17
2019-04-07T11:58:09.868Z,42.87
2019-04-07T11:59:30.639Z,42.95
2019-04-07T12:00:48.806Z,44.63
2019-04-07T12:02:00.850Z,42.91
2019-04-07T12:03:26.859Z,44.04
2019-04-07T12:04:48.980Z,41.15
2019-04-07T12:06:14.237Z,44.05
2019-04-07T12:07:37.211Z,44.81
2019-04-07T12:09:00.200Z,44.62
2019-04-07T12:10:27.185Z,46.13
2019-04-07T12:11:50.445Z,46.26
2019-04-07T12:13:21.101Z,42.97
2019-04-07T12:14:52.445Z,41.87
2019-04-07T12:16:09.255Z,44.86
2019-04-07T12:17:33.976Z,43.61
2019-04-07T12:19:04.561Z,43.50
2019-04-07T12:20:16.327Z,41.98
2019-04-07T12:21:38.084Z,42.83
2019-04-07T12:23:22.924Z,41.80
2019-04-07T12:24:35.069Z,45.04
2019-04-07T12:25:57.642Z,38.85
2019-04-07T12:27:30.322Z,34.57
2019-04-07T12:28:50.419Z,32.62
2019-04-07T12:30:22.402Z,38.02
2019-04-07T12:31:45.241Z,35.91
2019-04-07T12:34:30.479Z,35.10
2019-04-07T12:36:09.434Z,33.27
2019-04-07T12:37:45.427Z,32.89
2019-04-07T12:39:18.857Z,32.48
2019-04-07T12:40:34.251Z,31.58
2019-04-07T12:41:59.098Z,31.68
2019-04-07T12:43:23.034Z,32.45
2019-04-07T12:44:50.810Z,31.06
2019-04-07T12:46:19.464Z,31.36
2019-04-07T12:48:01.513Z,31.42
2019-04-07T12:49:14.462Z,32.05
2019-04-07T12:50:51.135Z,31.22
2019-04-07T12:52:27.256Z,31.74
2019-04-07T12:54:01.819Z,31.90
2019-04-07T12:55:35.043Z,31.10
2019-04-07T12:57:02.508Z,31.62
2019-04-07T12:58:24.469Z,31.46
2019-04-07T12:59:52.923Z,31.96
2019-04-07T13:01:19.118Z,31.52
2019-04-07T13:02:28.533Z,32.14
2019-04-07T13:03:42.701Z,32.09
2019-04-07T13:05:16.598Z,31.84
2019-04-07T13:06:42.271Z,30.83
2019-04-07T13:08:05.950Z,31.03
2019-04-07T13:09:27.861Z,31.35
2019-04-07T13:10:41.655Z,30.88
2019-04-07T13:12:08.639Z,30.73
2019-04-07T13:13:35.347Z,30.77
2019-04-07T13:15:00.013Z,29.71
2019-04-07T13:16:26.246Z,29.70
2019-04-07T13:17:58.325Z,30.02
2019-04-07T13:19:21.690Z,30.04
2019-04-07T13:20:54.837Z,29.57
2019-04-07T13:22:13.934Z,28.66
2019-04-07T13:23:28.711Z,29.09
2019-04-07T13:24:58.248Z,29.88
2019-04-07T13:26:18.714Z,30.14
2019-04-07T13:27:52.115Z,30.15
2019-04-07T13:29:04.345Z,30.11
2019-04-07T13:30:23.577Z,29.76
2019-04-07T13:31:54.121Z,29.46
2019-04-07T13:33:28.399Z,30.15
2019-04-07T13:34:50.441Z,29.11
2019-04-07T13:36:20.402Z,29.65
2019-04-07T13:37:31.123Z,29.11
2019-04-07T13:38:47.952Z,28.76
2019-04-07T13:40:11.462Z,28.94
2019-04-07T13:41:38.652Z,28.64
2019-04-07T13:42:58.868Z,28.66
2019-04-07T13:44:23.161Z,29.08
2019-04-07T13:46:17.165Z,28.23
2019-04-07T13:47:42.079Z,28.84
2019-04-07T13:49:00.237Z,29.26
2019-04-07T13:50:40.658Z,28.90
2019-04-07T13:52:10.699Z,28.81
2019-04-07T13:53:34.022Z,28.94
2019-04-07T13:55:07.768Z,28.69
2019-04-07T13:56:42.020Z,28.64
2019-04-07T13:58:12.061Z,28.70
2019-04-07T13:59:39.291Z,28.65
2019-04-07T14:01:00.853Z,27.97
2019-04-07T14:02:15.457Z,28.06
2019-04-07T14:03:45.664Z,27.90
2019-04-07T14:05:18.291Z,27.98
2019-04-07T14:06:46.734Z,28.47
2019-04-07T14:08:04.265Z,28.82
2019-04-07T14:09:30.534Z,28.83
2019-04-07T14:10:57.938Z,28.71
2019-04-07T14:12:26.074Z,27.47
2019-04-07T14:13:52.471Z,28.68
2019-04-07T14:15:22.212Z,28.94
2019-04-07T14:16:48.762Z,28.86
2019-04-07T14:18:29.366Z,28.81
2019-04-07T14:19:59.255Z,28.88
2019-04-07T14:21:32.434Z,28.58
2019-04-07T14:22:55.581Z,29.51
2019-04-07T14:24:11.450Z,28.87
2019-04-07T14:25:28.818Z,28.37
2019-04-07T14:26:41.257Z,28.10
2019-04-07T14:28:03.678Z,28.35
2019-04-07T14:29:33.927Z,28.46
2019-04-07T14:30:46.975Z,28.84
2019-04-07T14:32:02.085Z,28.54
2019-04-07T14:33:31.786Z,28.78
2019-04-07T14:35:14.178Z,29.47
2019-04-07T14:36:46.711Z,28.79
2019-04-07T14:38:11.344Z,28.26
2019-04-07T14:39:32.500Z,28.63
2019-04-07T14:40:57.514Z,28.67
2019-04-07T14:42:30.552Z,27.88
2019-04-07T14:43:53.027Z,28.70
2019-04-07T14:45:12.242Z,28.29
2019-04-07T14:46:49.012Z,28.52
2019-04-07T14:48:03.353Z,29.13
2019-04-07T14:49:20.319Z,28.13
2019-04-07T14:50:34.799Z,28.21
2019-04-07T14:51:58.129Z,27.81
2019-04-07T14:53:35.487Z,28.56
2019-04-07T14:54:57.019Z,28.04
2019-04-07T14:56:18.629Z,28.19
2019-04-07T14:57:39.027Z,27.73
2019-04-07T14:59:06.587Z,28.03
2019-04-07T15:00:29.527Z,28.22
2019-04-07T15:01:55.713Z,28.96
2019-04-07T15:03:02.075Z,27.50
2019-04-07T15:04:07.024Z,27.90
2019-04-07T15:05:21.816Z,28.32
2019-04-07T15:06:29.205Z,27.58
2019-04-07T15:07:48.810Z,27.83
2019-04-07T15:09:07.216Z,28.25
2019-04-07T15:10:20.232Z,28.47
2019-04-07T15:11:29.753Z,28.48
2019-04-07T15:12:42.358Z,28.69
2019-04-07T15:13:47.484Z,28.37
2019-04-07T15:14:52.751Z,28.14
2019-04-07T15:15:58.226Z,28.45
2019-04-07T15:17:03.606Z,28.96
2019-04-07T15:18:08.345Z,28.32
2019-04-07T15:19:13.774Z,28.47
2019-04-07T15:20:18.434Z,29.20
2019-04-07T15:21:23.980Z,28.55
2019-04-07T15:22:30.994Z,28.85
2019-04-07T15:23:35.794Z,28.96
2019-04-07T15:24:41.141Z,29.14
2019-04-07T15:25:47.268Z,29.53
2019-04-07T15:26:53.865Z,29.00
2019-04-07T15:28:01.321Z,28.43
2019-04-07T15:29:09.293Z,28.36
2019-04-07T15:30:15.274Z,28.69
2019-04-07T15:31:20.785Z,29.17
2019-04-07T15:32:29.003Z,28.68
2019-04-07T15:33:34.142Z,27.88
2019-04-07T15:34:42.297Z,28.01
2019-04-07T15:35:53.380Z,28.36
2019-04-07T15:36:58.997Z,27.89
2019-04-07T15:38:04.189Z,27.78
2019-04-07T15:39:10.982Z,28.34
2019-04-07T15:40:15.403Z,28.67
2019-04-07T15:41:20.923Z,28.23
2019-04-07T15:42:35.197Z,28.02
2019-04-07T15:43:35.550Z,28.55
2019-04-07T15:44:42.205Z,28.08
2019-04-07T15:45:47.015Z,28.06
2019-04-07T15:46:53.381Z,27.90
2019-04-07T15:48:00.503Z,27.68
2019-04-07T15:49:06.696Z,28.42
2019-04-07T15:50:11.730Z,27.58
2019-04-07T15:51:17.543Z,27.53
2019-04-07T15:52:22.990Z,27.90
2019-04-07T15:53:27.962Z,27.41
2019-04-07T15:54:33.892Z,27.96
2019-04-07T15:55:47.594Z,27.59
2019-04-07T15:56:49.316Z,26.98
2019-04-07T15:57:54.933Z,27.08
2019-04-07T15:59:00.764Z,27.31
2019-04-07T16:00:06.169Z,26.84
2019-04-07T16:01:11.800Z,27.33
2019-04-07T16:02:17.276Z,27.43
2019-04-07T16:03:22.357Z,27.47
2019-04-07T16:04:29.301Z,27.02
2019-04-07T16:05:40.394Z,27.43